createdAt,value
2023-05-06T00:00:13.127Z,4.30
2023-05-06T00:05:51.548Z,4.60
2023-05-06T00:11:16.028Z,4.50
2023-05-06T00:16:40.320Z,4.20
2023-05-06T00:22:04.801Z,4.70
2023-05-06T00:27:28.955Z,4.40
2023-05-06T00:32:52.805Z,4.50
2023-05-06T00:38:17.885Z,4.60
2023-05-06T00:43:42.758Z,5.10
2023-05-06T00:49:07.219Z,4.50
2023-05-06T00:54:31.444Z,5.40
2023-05-06T00:59:55.724Z,4.20
2023-05-06T01:05:26.471Z,5.00
2023-05-06T01:11:00.597Z,4.70
2023-05-06T01:16:27.494Z,4.90
2023-05-06T01:21:55.462Z,4.40
2023-05-06T01:27:20.723Z,4.90
2023-05-06T01:33:04.647Z,4.60
2023-05-06T01:38:41.403Z,5.30
2023-05-06T01:44:07.687Z,5.10
2023-05-06T01:49:33.143Z,5.30
2023-05-06T01:54:57.137Z,5.80
2023-05-06T02:00:21.612Z,5.80
2023-05-06T02:05:46.199Z,4.90
2023-05-06T02:11:10.145Z,5.90
2023-05-06T02:16:35.691Z,5.60
2023-05-06T02:22:00.686Z,5.00
2023-05-06T02:27:25.164Z,6.00
2023-05-06T02:32:49.314Z,6.30
2023-05-06T02:38:13.952Z,5.50
2023-05-06T02:43:37.844Z,4.70
2023-05-06T02:49:02.481Z,4.60
2023-05-06T02:54:30.544Z,4.60
2023-05-06T02:59:55.127Z,5.10
2023-05-06T03:05:19.205Z,5.00
2023-05-06T03:10:43.475Z,5.00
2023-05-06T03:16:13.739Z,4.70
2023-05-06T03:21:39.385Z,5.00
2023-05-06T03:27:04.434Z,5.20
2023-05-06T03:32:29.832Z,5.50
2023-05-06T03:37:54.277Z,5.60
2023-05-06T03:43:18.844Z,5.60
2023-05-06T03:48:44.632Z,5.10
2023-05-06T03:54:11.722Z,5.30
2023-05-06T03:59:38.300Z,4.90
2023-05-06T04:05:04.598Z,5.80
2023-05-06T04:10:29.504Z,6.20
2023-05-06T04:15:57.891Z,4.50
2023-05-06T04:21:28.158Z,4.60
2023-05-06T04:26:59.654Z,4.90
2023-05-06T04:32:25.998Z,4.90
2023-05-06T04:37:51.246Z,5.10
2023-05-06T04:43:20.654Z,5.00
2023-05-06T04:48:45.810Z,5.70
2023-05-06T04:54:10.860Z,6.60
2023-05-06T04:59:36.437Z,6.10
2023-05-06T05:05:01.487Z,4.40
2023-05-06T05:10:26.588Z,5.40
2023-05-06T05:15:55.191Z,5.50
2023-05-06T05:21:21.339Z,5.10
2023-05-06T05:26:46.323Z,4.90
2023-05-06T05:32:12.727Z,4.70
2023-05-06T05:37:37.814Z,4.40
2023-05-06T05:43:03.281Z,5.60
2023-05-06T05:48:33.000Z,5.30
2023-05-06T05:53:58.600Z,6.30
2023-05-06T05:59:23.279Z,6.90
2023-05-06T06:04:49.722Z,5.10
2023-05-06T06:10:16.203Z,5.30
2023-05-06T06:15:42.494Z,5.00
2023-05-06T06:21:08.252Z,6.00
2023-05-06T06:26:33.435Z,5.40
2023-05-06T06:31:58.903Z,5.40
2023-05-06T06:37:24.451Z,4.80
2023-05-06T06:42:51.789Z,5.40
2023-05-06T06:48:52.174Z,5.70
2023-05-06T06:54:22.349Z,6.20
2023-05-06T06:59:51.018Z,5.80
2023-05-06T07:05:16.931Z,6.20
2023-05-06T07:10:43.155Z,6.20
2023-05-06T07:16:10.168Z,5.40
2023-05-06T07:21:41.123Z,5.70
2023-05-06T07:27:10.615Z,5.70
2023-05-06T07:32:37.521Z,6.00
2023-05-06T07:38:03.978Z,5.00
2023-05-06T07:43:28.446Z,5.20
2023-05-06T07:48:53.200Z,5.40
2023-05-06T07:54:17.456Z,5.30
2023-05-06T07:59:43.067Z,6.20
2023-05-06T08:05:09.232Z,5.30
2023-05-06T08:10:33.942Z,5.50
2023-05-06T08:15:58.866Z,6.10
2023-05-06T08:21:23.293Z,5.80
2023-05-06T08:26:48.248Z,6.80
2023-05-06T08:32:12.729Z,6.30
2023-05-06T08:37:36.866Z,6.30
2023-05-06T08:43:04.119Z,5.90
2023-05-06T08:48:30.252Z,5.70
2023-05-06T08:53:58.952Z,6.90
2023-05-06T08:59:31.480Z,5.80
2023-05-06T09:04:57.089Z,7.00
2023-05-06T09:10:21.736Z,7.50
2023-05-06T09:15:48.484Z,7.00
2023-05-06T09:21:14.232Z,7.50
2023-05-06T09:26:41.342Z,7.60
2023-05-06T09:32:09.144Z,7.60
2023-05-06T09:37:33.832Z,6.90
2023-05-06T09:42:58.407Z,7.00
2023-05-06T09:48:22.867Z,6.70
2023-05-06T09:53:47.970Z,8.40
2023-05-06T09:59:15.153Z,7.50
2023-05-06T10:04:42.467Z,6.60
2023-05-06T10:10:14.613Z,7.80
2023-05-06T10:15:39.740Z,8.90
2023-05-06T10:21:09.536Z,7.40
2023-05-06T10:26:37.872Z,7.80
2023-05-06T10:32:04.400Z,7.20
2023-05-06T10:37:32.308Z,7.20
2023-05-06T10:43:27.975Z,7.50
2023-05-06T10:49:06.973Z,8.70
2023-05-06T10:54:31.478Z,7.40
2023-05-06T10:59:56.262Z,7.80
2023-05-06T11:05:21.281Z,8.40
2023-05-06T11:10:46.087Z,9.80
2023-05-06T11:16:11.456Z,10.80
2023-05-06T11:21:37.159Z,12.10
2023-05-06T11:27:02.184Z,12.30
2023-05-06T11:32:29.974Z,10.90
2023-05-06T11:37:55.382Z,10.40
2023-05-06T11:43:20.537Z,11.70
2023-05-06T11:48:44.988Z,11.60
2023-05-06T11:54:11.306Z,10.60
2023-05-06T11:59:38.305Z,9.90
2023-05-06T12:05:03.405Z,9.60
2023-05-06T12:10:28.228Z,8.60
2023-05-06T12:15:55.804Z,9.40
2023-05-06T12:21:27.213Z,8.10
2023-05-06T12:26:52.298Z,9.90
2023-05-06T12:32:17.003Z,8.60
2023-05-06T12:37:41.629Z,11.20
2023-05-06T12:43:05.812Z,10.80
2023-05-06T12:48:30.656Z,12.20
2023-05-06T12:53:55.223Z,9.50
2023-05-06T12:59:19.465Z,9.10
2023-05-06T13:04:44.547Z,9.90
2023-05-06T13:10:11.282Z,9.30
2023-05-06T13:15:37.778Z,9.00
2023-05-06T13:21:02.492Z,8.20
2023-05-06T13:26:27.138Z,8.90
2023-05-06T13:31:51.977Z,7.90
2023-05-06T13:37:16.563Z,7.40
2023-05-06T13:42:41.957Z,9.40
2023-05-06T13:48:06.395Z,7.80
2023-05-06T13:53:31.351Z,8.90
2023-05-06T13:58:55.835Z,12.00
2023-05-06T14:04:19.702Z,10.30
2023-05-06T14:09:44.334Z,9.30
2023-05-06T14:15:10.700Z,11.00
2023-05-06T14:20:36.673Z,9.40
2023-05-06T14:26:01.803Z,9.00
2023-05-06T14:31:27.077Z,7.80
2023-05-06T14:36:51.421Z,6.80
2023-05-06T14:42:16.113Z,7.60
2023-05-06T14:47:41.418Z,9.10
2023-05-06T14:53:06.663Z,7.40
2023-05-06T14:58:32.329Z,6.50
2023-05-06T15:04:00.575Z,5.90
2023-05-06T15:09:31.578Z,5.40
2023-05-06T15:14:55.807Z,4.60
2023-05-06T15:20:20.248Z,4.70
2023-05-06T15:25:45.587Z,4.70
2023-05-06T15:31:11.257Z,5.20
2023-05-06T15:36:36.032Z,9.20
2023-05-06T15:42:01.504Z,6.90
2023-05-06T15:47:26.777Z,7.80
2023-05-06T15:52:51.041Z,8.20
2023-05-06T15:58:16.160Z,7.10
2023-05-06T16:03:43.780Z,5.90
2023-05-06T16:09:09.200Z,6.60
2023-05-06T16:14:33.823Z,6.90
2023-05-06T16:19:58.246Z,8.30
2023-05-06T16:25:23.881Z,7.80
2023-05-06T16:30:48.855Z,8.20
2023-05-06T16:36:13.771Z,6.10
2023-05-06T16:41:38.165Z,6.10
2023-05-06T16:47:02.260Z,5.30
2023-05-06T16:52:26.556Z,6.20
2023-05-06T16:57:51.690Z,6.90
2023-05-06T17:03:16.609Z,6.70
2023-05-06T17:08:42.031Z,7.80
2023-05-06T17:14:06.472Z,7.80
2023-05-06T17:19:30.749Z,7.60
2023-05-06T17:24:55.380Z,7.30
2023-05-06T17:30:21.111Z,7.40
2023-05-06T17:35:46.354Z,6.80
2023-05-06T17:41:11.479Z,8.00
2023-05-06T17:46:36.168Z,7.00
2023-05-06T17:52:01.734Z,8.10
2023-05-06T17:57:26.223Z,6.70
2023-05-06T18:02:51.156Z,9.00
2023-05-06T18:08:15.888Z,7.90
2023-05-06T18:13:41.145Z,6.80
2023-05-06T18:19:05.866Z,6.20
2023-05-06T18:24:30.043Z,5.60
2023-05-06T18:29:54.521Z,5.60
2023-05-06T18:35:19.463Z,5.40
2023-05-06T18:40:46.358Z,6.30
2023-05-06T18:46:12.145Z,6.40
2023-05-06T18:51:37.230Z,6.80
2023-05-06T18:57:02.772Z,5.50
2023-05-06T19:02:27.230Z,5.10
2023-05-06T19:07:52.007Z,4.90
2023-05-06T19:13:17.432Z,5.90
2023-05-06T19:18:42.087Z,5.60
2023-05-06T19:24:06.934Z,6.50
2023-05-06T19:29:31.121Z,8.00
2023-05-06T19:34:55.702Z,7.70
2023-05-06T19:40:20.076Z,7.70
2023-05-06T19:45:44.668Z,6.40
2023-05-06T19:51:10.222Z,7.20
2023-05-06T19:56:34.710Z,7.10
2023-05-06T20:02:02.010Z,7.00
2023-05-06T20:07:26.712Z,7.20
2023-05-06T20:12:51.637Z,7.50
2023-05-06T20:18:17.010Z,7.60
2023-05-06T20:23:41.998Z,7.30
2023-05-06T20:29:06.495Z,7.00
2023-05-06T20:34:30.843Z,6.50
2023-05-06T20:39:55.794Z,7.20
2023-05-06T20:45:20.569Z,6.70
2023-05-06T20:50:45.716Z,6.30
2023-05-06T20:56:26.394Z,7.10
2023-05-06T21:01:51.090Z,7.60
2023-05-06T21:07:15.402Z,5.10
2023-05-06T21:12:57.310Z,7.30
2023-05-06T21:18:38.893Z,6.90
2023-05-06T21:24:20.796Z,6.70
2023-05-06T21:30:03.178Z,6.90
2023-05-06T21:35:45.034Z,6.90
2023-05-06T21:41:09.832Z,8.40
2023-05-06T21:46:34.724Z,7.50
2023-05-06T21:51:59.912Z,8.20
2023-05-06T21:57:25.665Z,9.10
2023-05-06T22:02:53.660Z,8.00
2023-05-06T22:08:18.156Z,8.20
2023-05-06T22:13:42.591Z,7.20
2023-05-06T22:19:06.810Z,8.30
2023-05-06T22:24:31.957Z,9.20
2023-05-06T22:29:57.115Z,8.80
2023-05-06T22:35:22.182Z,8.50
2023-05-06T22:40:46.313Z,9.30
2023-05-06T22:46:10.179Z,8.50
2023-05-06T22:51:34.608Z,7.40
2023-05-06T22:56:59.877Z,7.10
2023-05-06T23:02:24.489Z,7.50
2023-05-06T23:07:49.398Z,7.70
2023-05-06T23:13:13.335Z,7.30
2023-05-06T23:18:37.327Z,7.60
2023-05-06T23:24:02.143Z,7.30
2023-05-06T23:29:27.267Z,8.60
2023-05-06T23:34:52.890Z,7.80
2023-05-06T23:40:18.048Z,8.00
2023-05-06T23:45:42.847Z,8.00
2023-05-06T23:51:07.581Z,7.50
2023-05-06T23:56:32.024Z,7.60
